createdAt,value
2022-12-06T00:00:29.456Z,12.75
2022-12-06T00:01:33.924Z,10.73
2022-12-06T00:02:35.797Z,11.27
2022-12-06T00:03:38.895Z,10.60
2022-12-06T00:04:41.540Z,10.70
2022-12-06T00:05:46.365Z,10.38
2022-12-06T00:06:52.984Z,9.60
2022-12-06T00:07:54.911Z,9.60
2022-12-06T00:08:57.943Z,9.85
2022-12-06T00:09:59.879Z,9.30
2022-12-06T00:11:16.475Z,10.10
2022-12-06T00:12:18.368Z,9.50
2022-12-06T00:13:20.172Z,10.10
2022-12-06T00:14:22.943Z,11.52
2022-12-06T00:15:24.727Z,10.20
2022-12-06T00:16:27.219Z,11.55
2022-12-06T00:17:32.006Z,11.00
2022-12-06T00:18:35.701Z,13.98
2022-12-06T00:19:37.498Z,10.27
2022-12-06T00:20:39.169Z,9.90
2022-12-06T00:21:41.276Z,9.52
2022-12-06T00:22:45.961Z,10.20
2022-12-06T00:23:53.697Z,8.90
2022-12-06T00:24:55.407Z,9.23
2022-12-06T00:25:57.596Z,9.45
2022-12-06T00:26:59.521Z,8.85
2022-12-06T00:28:01.239Z,10.93
2022-12-06T00:29:04.030Z,10.32
2022-12-06T00:30:06.678Z,10.57
2022-12-06T00:31:12.395Z,10.00
2022-12-06T00:32:19.284Z,9.98
2022-12-06T00:33:21.350Z,9.90
2022-12-06T00:34:23.405Z,9.57
2022-12-06T00:35:28.222Z,9.73
2022-12-06T00:36:33.390Z,9.65
2022-12-06T00:37:38.129Z,10.30
2022-12-06T00:38:39.753Z,9.02
2022-12-06T00:39:42.305Z,10.07
2022-12-06T00:40:44.183Z,8.95
2022-12-06T00:41:45.939Z,8.60
2022-12-06T00:42:47.609Z,8.63
2022-12-06T00:43:50.056Z,9.23
2022-12-06T00:44:51.648Z,7.55
2022-12-06T00:45:53.745Z,9.45
2022-12-06T00:46:55.651Z,9.73
2022-12-06T00:47:57.384Z,8.35
2022-12-06T00:49:01.398Z,8.75
2022-12-06T00:50:03.706Z,9.43
2022-12-06T00:51:05.805Z,8.60
2022-12-06T00:52:07.482Z,8.38
2022-12-06T00:53:09.101Z,6.45
2022-12-06T00:54:13.867Z,6.45
2022-12-06T00:55:15.530Z,7.32
2022-12-06T00:56:18.454Z,7.47
2022-12-06T00:57:21.637Z,7.15
2022-12-06T00:58:23.892Z,6.72
2022-12-06T00:59:25.671Z,6.85
2022-12-06T01:00:27.625Z,6.72
2022-12-06T01:01:31.542Z,6.90
2022-12-06T01:02:33.256Z,6.78
2022-12-06T01:03:35.477Z,6.80
2022-12-06T01:04:37.740Z,6.15
2022-12-06T01:05:50.245Z,6.55
2022-12-06T01:06:51.990Z,6.80
2022-12-06T01:07:54.308Z,7.00
2022-12-06T01:08:57.446Z,6.57
2022-12-06T01:09:59.755Z,6.90
2022-12-06T01:11:02.244Z,6.55
2022-12-06T01:12:05.129Z,6.65
2022-12-06T01:13:07.749Z,7.47
2022-12-06T01:14:09.467Z,8.52
2022-12-06T01:15:11.490Z,9.00
2022-12-06T01:16:16.454Z,8.23
2022-12-06T01:17:18.193Z,8.45
2022-12-06T01:18:21.285Z,7.90
2022-12-06T01:19:23.255Z,8.68
2022-12-06T01:20:25.122Z,8.70
2022-12-06T01:21:28.182Z,9.70
2022-12-06T01:22:29.941Z,9.98
2022-12-06T01:23:31.955Z,9.35
2022-12-06T01:24:33.674Z,9.98
2022-12-06T01:25:36.404Z,9.18
2022-12-06T01:26:38.754Z,9.60
2022-12-06T01:27:40.721Z,8.98
2022-12-06T01:28:42.492Z,9.25
2022-12-06T01:29:44.271Z,8.57
2022-12-06T01:30:46.093Z,8.00
2022-12-06T01:31:48.531Z,9.27
2022-12-06T01:32:50.426Z,8.20
2022-12-06T01:33:52.388Z,8.25
2022-12-06T01:34:54.002Z,8.70
2022-12-06T01:35:55.892Z,7.47
2022-12-06T01:36:57.706Z,7.60
2022-12-06T01:38:05.819Z,7.85
2022-12-06T01:39:10.927Z,7.93
2022-12-06T01:40:13.501Z,8.38
2022-12-06T01:41:15.345Z,7.45
2022-12-06T01:42:17.197Z,7.47
2022-12-06T01:43:39.274Z,8.60
2022-12-06T01:44:54.915Z,8.10
2022-12-06T01:45:58.220Z,7.57
2022-12-06T01:47:00.093Z,7.70
2022-12-06T01:48:02.203Z,7.50
2022-12-06T01:49:12.473Z,7.57
2022-12-06T01:50:24.805Z,7.78
2022-12-06T01:51:26.865Z,8.27
2022-12-06T01:52:34.626Z,6.70
2022-12-06T01:53:37.738Z,7.70
2022-12-06T01:54:40.567Z,7.18
2022-12-06T01:55:42.795Z,6.55
2022-12-06T01:56:44.721Z,6.68
2022-12-06T01:57:48.157Z,7.60
2022-12-06T01:58:54.079Z,8.15
2022-12-06T01:59:55.842Z,7.50
2022-12-06T02:00:57.650Z,8.35
2022-12-06T02:01:59.603Z,7.05
2022-12-06T02:03:03.095Z,8.23
2022-12-06T02:04:06.839Z,8.38
2022-12-06T02:05:10.022Z,8.68
2022-12-06T02:06:12.772Z,7.95
2022-12-06T02:07:14.819Z,7.60
2022-12-06T02:08:17.371Z,8.35
2022-12-06T02:09:20.209Z,9.25
2022-12-06T02:10:22.651Z,9.38
2022-12-06T02:11:24.517Z,7.90
2022-12-06T02:12:26.248Z,9.20
2022-12-06T02:13:29.190Z,7.65
2022-12-06T02:14:33.974Z,8.63
2022-12-06T02:15:57.563Z,9.00
2022-12-06T02:17:14.434Z,7.45
2022-12-06T02:18:27.885Z,8.13
2022-12-06T02:19:56.858Z,9.32
2022-12-06T02:21:13.422Z,9.68
2022-12-06T02:22:23.544Z,8.57
2022-12-06T02:24:04.307Z,9.07
2022-12-06T02:25:38.320Z,9.50
2022-12-06T02:27:09.344Z,9.27
2022-12-06T02:28:23.194Z,9.82
2022-12-06T02:29:25.226Z,9.25
2022-12-06T02:30:37.541Z,8.20
2022-12-06T02:31:54.833Z,7.95
2022-12-06T02:33:05.798Z,7.85
2022-12-06T02:34:16.374Z,9.23
2022-12-06T02:35:34.870Z,8.02
2022-12-06T02:36:36.637Z,8.48
2022-12-06T02:37:48.959Z,8.85
2022-12-06T02:38:58.542Z,7.60
2022-12-06T02:40:07.305Z,8.48
2022-12-06T02:41:16.379Z,9.75
2022-12-06T02:42:23.416Z,8.90
2022-12-06T02:43:49.237Z,7.78
2022-12-06T02:44:57.389Z,8.45
2022-12-06T02:46:03.064Z,8.32
2022-12-06T02:47:07.846Z,8.55
2022-12-06T02:48:10.756Z,7.78
2022-12-06T02:49:14.013Z,7.75
2022-12-06T02:50:24.339Z,8.68
2022-12-06T02:51:29.297Z,9.25
2022-12-06T02:52:32.264Z,7.93
2022-12-06T02:53:38.849Z,8.23
2022-12-06T02:54:43.973Z,8.52
2022-12-06T02:55:47.071Z,9.35
2022-12-06T02:56:48.805Z,9.70
2022-12-06T02:57:53.904Z,8.88
2022-12-06T02:58:57.055Z,9.57
2022-12-06T02:59:59.570Z,8.15
2022-12-06T03:01:04.674Z,8.70
2022-12-06T03:02:11.522Z,8.90
2022-12-06T03:03:34.475Z,9.65
2022-12-06T03:05:05.567Z,8.52
2022-12-06T03:06:16.716Z,8.75
2022-12-06T03:07:40.359Z,8.70
2022-12-06T03:09:14.074Z,8.73
2022-12-06T03:10:55.065Z,8.65
2022-12-06T03:12:05.923Z,8.52
2022-12-06T03:13:22.069Z,8.93
2022-12-06T03:14:33.494Z,7.97
2022-12-06T03:15:51.001Z,9.13
2022-12-06T03:17:07.738Z,9.60
2022-12-06T03:18:12.412Z,8.80
2022-12-06T03:19:21.251Z,8.73
2022-12-06T03:20:43.862Z,9.05
2022-12-06T03:22:03.358Z,9.10
2022-12-06T03:23:07.132Z,8.90
2022-12-06T03:24:12.696Z,9.13
2022-12-06T03:25:15.916Z,8.25
2022-12-06T03:26:23.534Z,8.57
2022-12-06T03:27:25.777Z,9.32
2022-12-06T03:28:29.504Z,8.90
2022-12-06T03:29:33.367Z,9.38
2022-12-06T03:30:35.398Z,9.32
2022-12-06T03:31:41.173Z,9.52
2022-12-06T03:32:46.553Z,8.88
2022-12-06T03:33:59.253Z,8.77
2022-12-06T03:35:07.723Z,9.48
2022-12-06T03:36:12.324Z,7.90
2022-12-06T03:37:19.208Z,8.32
2022-12-06T03:38:31.631Z,9.10
2022-12-06T03:39:44.125Z,8.82
2022-12-06T03:40:49.723Z,8.52
2022-12-06T03:41:58.872Z,9.10
2022-12-06T03:43:01.052Z,8.93
2022-12-06T03:44:03.075Z,8.48
2022-12-06T03:45:05.699Z,9.00
2022-12-06T03:46:15.007Z,9.07
2022-12-06T03:47:42.237Z,8.50
2022-12-06T03:48:49.099Z,8.63
2022-12-06T03:49:59.280Z,9.10
2022-12-06T03:51:06.283Z,8.25
2022-12-06T03:52:08.891Z,9.10
2022-12-06T03:53:11.309Z,8.98
2022-12-06T03:54:13.335Z,7.82
2022-12-06T03:55:15.048Z,7.45
2022-12-06T03:56:17.314Z,7.70
2022-12-06T03:57:19.259Z,7.47
2022-12-06T03:58:21.514Z,8.90
2022-12-06T03:59:23.342Z,9.15
2022-12-06T04:00:25.082Z,8.63
2022-12-06T04:01:26.796Z,7.85
2022-12-06T04:02:28.871Z,8.68
2022-12-06T04:03:31.406Z,8.07
2022-12-06T04:04:33.758Z,7.00
2022-12-06T04:05:35.708Z,7.88
2022-12-06T04:06:37.341Z,8.05
2022-12-06T04:07:39.173Z,7.90
2022-12-06T04:08:41.034Z,8.02
2022-12-06T04:10:03.844Z,10.18
2022-12-06T04:11:05.949Z,8.60
2022-12-06T04:12:27.651Z,9.25
2022-12-06T04:13:29.539Z,10.07
2022-12-06T04:14:39.494Z,9.73
2022-12-06T04:15:41.373Z,10.43
2022-12-06T04:17:01.504Z,8.80
2022-12-06T04:18:16.025Z,8.75
2022-12-06T04:19:17.678Z,11.90
2022-12-06T04:20:19.325Z,10.27
2022-12-06T04:21:33.047Z,10.95
2022-12-06T04:22:54.206Z,9.90
2022-12-06T04:23:55.842Z,10.48
2022-12-06T04:24:57.616Z,10.00
2022-12-06T04:25:59.479Z,9.60
2022-12-06T04:27:20.407Z,9.93
2022-12-06T04:28:40.972Z,9.43
2022-12-06T04:30:01.409Z,8.98
2022-12-06T04:31:22.718Z,9.50
2022-12-06T04:32:42.907Z,8.38
2022-12-06T04:34:03.355Z,7.88
2022-12-06T04:35:23.771Z,8.90
2022-12-06T04:36:44.500Z,8.52
2022-12-06T04:38:04.967Z,7.43
2022-12-06T04:39:06.848Z,8.93
2022-12-06T04:40:08.866Z,8.77
2022-12-06T04:41:11.609Z,8.07
2022-12-06T04:42:32.451Z,7.63
2022-12-06T04:43:43.560Z,8.70
2022-12-06T04:44:45.672Z,8.75
2022-12-06T04:45:47.527Z,7.90
2022-12-06T04:46:49.453Z,8.40
2022-12-06T04:47:51.324Z,8.90
2022-12-06T04:48:53.311Z,8.93
2022-12-06T04:49:55.362Z,8.95
2022-12-06T04:50:56.972Z,9.68
2022-12-06T04:51:58.935Z,9.18
2022-12-06T04:53:00.773Z,9.30
2022-12-06T04:54:02.598Z,8.50
2022-12-06T04:55:05.069Z,8.05
2022-12-06T04:56:06.849Z,7.90
2022-12-06T04:57:12.112Z,7.63
2022-12-06T04:58:14.339Z,8.73
2022-12-06T04:59:16.592Z,8.30
2022-12-06T05:00:18.973Z,8.70
2022-12-06T05:01:20.736Z,8.75
2022-12-06T05:02:22.498Z,9.55
2022-12-06T05:03:24.930Z,7.75
2022-12-06T05:04:26.969Z,7.78
2022-12-06T05:05:28.826Z,10.55
2022-12-06T05:06:30.557Z,9.85
2022-12-06T05:07:32.982Z,9.05
2022-12-06T05:08:34.941Z,10.30
2022-12-06T05:09:36.641Z,8.95
2022-12-06T05:10:38.765Z,8.55
2022-12-06T05:11:40.809Z,8.23
2022-12-06T05:12:43.008Z,8.40
2022-12-06T05:13:44.774Z,8.43
2022-12-06T05:14:46.358Z,8.40
2022-12-06T05:16:14.198Z,6.93
2022-12-06T05:17:16.131Z,7.20
2022-12-06T05:18:18.040Z,8.05
2022-12-06T05:19:20.078Z,7.95
2022-12-06T05:20:21.767Z,7.78
2022-12-06T05:21:24.655Z,8.63
2022-12-06T05:22:26.369Z,7.60
2022-12-06T05:23:28.199Z,8.40
2022-12-06T05:24:33.649Z,8.63
2022-12-06T05:25:36.804Z,8.25
2022-12-06T05:26:38.700Z,8.50
2022-12-06T05:27:40.504Z,10.07
2022-12-06T05:28:50.414Z,9.13
2022-12-06T05:29:56.633Z,8.70
2022-12-06T05:30:58.810Z,9.02
2022-12-06T05:32:00.560Z,8.80
2022-12-06T05:33:02.361Z,7.78
2022-12-06T05:34:04.232Z,8.70
2022-12-06T05:35:07.120Z,9.02
2022-12-06T05:36:10.903Z,22.80
2022-12-06T05:37:12.913Z,20.95
2022-12-06T05:38:14.887Z,19.30
2022-12-06T05:39:16.923Z,15.88
2022-12-06T05:40:18.812Z,14.60
2022-12-06T05:41:22.167Z,10.20
2022-12-06T05:42:23.935Z,9.73
2022-12-06T05:43:25.904Z,9.68
2022-12-06T05:44:27.630Z,8.07
2022-12-06T05:45:29.335Z,9.02
2022-12-06T05:46:31.097Z,8.20
2022-12-06T05:47:32.936Z,8.20
2022-12-06T05:48:35.041Z,10.00
2022-12-06T05:49:36.772Z,8.05
2022-12-06T05:50:38.587Z,8.30
2022-12-06T05:51:40.348Z,7.65
2022-12-06T05:52:42.156Z,8.30
2022-12-06T05:53:43.839Z,7.55
2022-12-06T05:54:45.627Z,8.35
2022-12-06T05:55:48.355Z,8.05
2022-12-06T05:56:50.656Z,7.70
2022-12-06T05:57:52.880Z,6.57
2022-12-06T05:58:54.736Z,8.00
2022-12-06T05:59:58.918Z,8.75
2022-12-06T06:01:01.366Z,9.13
2022-12-06T06:02:03.263Z,7.65
2022-12-06T06:03:05.820Z,8.30
2022-12-06T06:04:07.694Z,7.00
2022-12-06T06:05:09.396Z,6.90
2022-12-06T06:06:11.220Z,6.25
2022-12-06T06:07:12.990Z,6.97
2022-12-06T06:08:14.906Z,6.70
2022-12-06T06:09:16.578Z,7.65
2022-12-06T06:10:18.607Z,6.80
2022-12-06T06:11:21.509Z,7.65
2022-12-06T06:12:23.509Z,8.48
2022-12-06T06:13:25.500Z,7.30
2022-12-06T06:14:27.208Z,9.00
2022-12-06T06:15:28.898Z,8.27
2022-12-06T06:16:30.913Z,8.40
2022-12-06T06:17:34.428Z,7.60
2022-12-06T06:18:36.346Z,7.95
2022-12-06T06:19:37.980Z,8.65
2022-12-06T06:20:39.771Z,7.80
2022-12-06T06:21:44.284Z,7.63
2022-12-06T06:22:45.892Z,6.68
2022-12-06T06:23:47.698Z,6.78
2022-12-06T06:24:49.334Z,6.88
2022-12-06T06:25:51.481Z,6.50
2022-12-06T06:26:53.412Z,6.00
2022-12-06T06:27:55.571Z,5.85
2022-12-06T06:28:57.240Z,6.78
2022-12-06T06:29:59.164Z,6.50
2022-12-06T06:31:06.032Z,6.10
2022-12-06T06:32:07.849Z,5.40
2022-12-06T06:33:10.095Z,6.03
2022-12-06T06:34:11.843Z,6.90
2022-12-06T06:35:13.555Z,6.63
2022-12-06T06:36:15.219Z,6.72
2022-12-06T06:37:17.086Z,6.45
2022-12-06T06:38:18.921Z,7.00
2022-12-06T06:39:20.604Z,6.53
2022-12-06T06:40:22.924Z,6.80
2022-12-06T06:41:24.895Z,7.40
2022-12-06T06:42:27.319Z,7.05
2022-12-06T06:43:30.409Z,6.90
2022-12-06T06:44:32.999Z,7.55
2022-12-06T06:45:34.916Z,8.02
2022-12-06T06:46:36.852Z,7.80
2022-12-06T06:47:38.681Z,8.15
2022-12-06T06:48:40.772Z,8.73
2022-12-06T06:49:42.486Z,8.98
2022-12-06T06:50:46.228Z,8.30
2022-12-06T06:51:48.262Z,9.05
2022-12-06T06:52:50.081Z,8.00
2022-12-06T06:53:51.767Z,8.35
2022-12-06T06:54:53.511Z,8.70
2022-12-06T06:55:55.585Z,24.30
2022-12-06T06:56:57.843Z,15.18
2022-12-06T06:57:59.631Z,11.43
2022-12-06T06:59:01.494Z,9.43
2022-12-06T07:00:04.983Z,9.30
2022-12-06T07:01:08.944Z,9.32
2022-12-06T07:02:15.448Z,8.73
2022-12-06T07:03:17.179Z,9.07
2022-12-06T07:04:19.125Z,9.40
2022-12-06T07:05:20.961Z,10.45
2022-12-06T07:06:22.852Z,10.98
2022-12-06T07:07:24.882Z,12.50
2022-12-06T07:08:28.073Z,16.42
2022-12-06T07:09:29.923Z,17.85
2022-12-06T07:10:31.838Z,17.25
2022-12-06T07:11:36.419Z,18.40
2022-12-06T07:12:38.141Z,16.55
2022-12-06T07:13:41.968Z,16.20
2022-12-06T07:14:43.799Z,14.43
2022-12-06T07:15:45.629Z,14.98
2022-12-06T07:16:47.388Z,16.08
2022-12-06T07:17:51.501Z,15.25
2022-12-06T07:18:54.061Z,15.55
2022-12-06T07:19:56.442Z,16.77
2022-12-06T07:21:04.676Z,17.23
2022-12-06T07:22:06.384Z,17.42
2022-12-06T07:23:08.142Z,15.80
2022-12-06T07:24:09.983Z,17.30
2022-12-06T07:25:11.769Z,16.00
2022-12-06T07:26:22.683Z,16.77
2022-12-06T07:27:24.461Z,14.85
2022-12-06T07:28:26.272Z,14.68
2022-12-06T07:29:28.067Z,15.52
2022-12-06T07:30:29.819Z,16.67
2022-12-06T07:31:32.207Z,15.60
2022-12-06T07:32:36.902Z,15.13
2022-12-06T07:33:39.565Z,15.88
2022-12-06T07:34:41.279Z,13.15
2022-12-06T07:36:10.995Z,14.10
2022-12-06T07:37:07.867Z,15.65
2022-12-06T07:38:09.633Z,16.27
2022-12-06T07:39:14.825Z,17.77
2022-12-06T07:40:20.931Z,18.10
2022-12-06T07:41:55.946Z,18.25
2022-12-06T07:43:16.431Z,19.10
2022-12-06T07:44:37.037Z,19.70
2022-12-06T07:45:38.874Z,18.55
2022-12-06T07:46:41.501Z,19.88
2022-12-06T07:47:44.561Z,18.92
2022-12-06T07:48:46.209Z,19.30
2022-12-06T07:49:48.114Z,17.55
2022-12-06T07:50:52.738Z,18.80
2022-12-06T07:51:57.858Z,18.55
2022-12-06T07:52:59.688Z,18.15
2022-12-06T07:54:01.877Z,18.35
2022-12-06T07:55:05.301Z,18.52
2022-12-06T07:56:08.018Z,18.33
2022-12-06T07:57:09.785Z,18.30
2022-12-06T07:58:11.428Z,17.33
2022-12-06T07:59:13.359Z,19.20
2022-12-06T08:00:16.416Z,19.13
2022-12-06T08:01:18.527Z,17.98
2022-12-06T08:02:22.892Z,17.58
2022-12-06T08:03:24.702Z,19.13
2022-12-06T08:04:26.796Z,18.60
2022-12-06T08:05:28.528Z,18.65
2022-12-06T08:06:32.033Z,18.63
2022-12-06T08:07:33.741Z,17.88
2022-12-06T08:08:36.602Z,16.50
2022-12-06T08:09:38.627Z,18.60
2022-12-06T08:10:40.838Z,17.15
2022-12-06T08:11:42.855Z,15.63
2022-12-06T08:12:44.817Z,16.80
2022-12-06T08:13:46.765Z,17.33
2022-12-06T08:14:48.940Z,18.00
2022-12-06T08:15:50.705Z,16.77
2022-12-06T08:16:52.377Z,17.55
2022-12-06T08:17:54.361Z,16.73
2022-12-06T08:18:56.794Z,17.55
2022-12-06T08:19:58.884Z,17.92
2022-12-06T08:21:01.041Z,16.35
2022-12-06T08:22:02.908Z,15.95
2022-12-06T08:23:04.715Z,17.42
2022-12-06T08:24:06.697Z,16.30
2022-12-06T08:25:08.852Z,15.93
2022-12-06T08:26:14.449Z,16.55
2022-12-06T08:27:18.275Z,17.90
2022-12-06T08:28:20.124Z,16.48
2022-12-06T08:29:22.859Z,17.17
2022-12-06T08:30:24.639Z,17.45
2022-12-06T08:31:26.504Z,18.52
2022-12-06T08:32:28.529Z,17.50
2022-12-06T08:33:33.039Z,17.67
2022-12-06T08:34:34.720Z,18.10
2022-12-06T08:35:37.509Z,18.85
2022-12-06T08:36:40.661Z,17.88
2022-12-06T08:37:42.376Z,16.52
2022-12-06T08:38:44.905Z,17.45
2022-12-06T08:39:46.797Z,16.60
2022-12-06T08:40:48.579Z,16.55
2022-12-06T08:41:56.333Z,18.00
2022-12-06T08:42:58.197Z,15.80
2022-12-06T08:44:01.894Z,15.52
2022-12-06T08:45:04.214Z,17.40
2022-12-06T08:46:06.130Z,17.08
2022-12-06T08:47:07.962Z,15.88
2022-12-06T08:48:09.590Z,19.05
2022-12-06T08:49:12.902Z,16.65
2022-12-06T08:50:14.543Z,17.52
2022-12-06T08:51:16.418Z,16.23
2022-12-06T08:52:18.666Z,17.83
2022-12-06T08:53:20.591Z,18.95
2022-12-06T08:54:25.045Z,16.92
2022-12-06T08:55:26.795Z,18.20
2022-12-06T08:56:29.100Z,18.30
2022-12-06T08:57:33.013Z,17.83
2022-12-06T08:58:34.746Z,17.25
2022-12-06T09:01:38.181Z,18.13
2022-12-06T09:02:41.796Z,18.38
2022-12-06T09:03:44.036Z,17.17
2022-12-06T09:04:45.968Z,16.90
2022-12-06T09:05:48.052Z,15.70
2022-12-06T09:06:50.083Z,15.82
2022-12-06T09:07:52.149Z,17.50
2022-12-06T09:08:54.201Z,18.17
2022-12-06T09:09:56.009Z,16.90
2022-12-06T09:10:57.780Z,17.20
2022-12-06T09:11:59.525Z,17.13
2022-12-06T09:13:01.289Z,17.30
2022-12-06T09:14:03.737Z,18.80
2022-12-06T09:15:06.375Z,19.38
2022-12-06T09:16:14.349Z,17.95
2022-12-06T09:17:16.180Z,19.00
2022-12-06T09:18:17.995Z,17.88
2022-12-06T09:19:20.865Z,17.75
2022-12-06T09:20:22.722Z,18.52
2022-12-06T09:21:26.205Z,17.95
2022-12-06T09:22:30.754Z,15.30
2022-12-06T09:23:33.212Z,17.15
2022-12-06T09:24:34.933Z,16.10
2022-12-06T09:25:36.669Z,14.85
2022-12-06T09:26:38.428Z,14.75
2022-12-06T09:27:40.074Z,13.98
2022-12-06T09:28:44.915Z,13.60
2022-12-06T09:29:47.359Z,13.20
2022-12-06T09:30:49.177Z,11.38
2022-12-06T09:31:51.369Z,12.65
2022-12-06T09:32:54.883Z,12.90
2022-12-06T09:33:56.887Z,11.43
2022-12-06T09:34:58.480Z,11.73
2022-12-06T09:36:05.549Z,11.70
2022-12-06T09:37:12.417Z,10.45
2022-12-06T09:38:14.422Z,11.35
2022-12-06T09:39:25.324Z,11.27
2022-12-06T09:40:41.252Z,11.68
2022-12-06T09:42:06.152Z,10.52
2022-12-06T09:43:15.498Z,10.00
2022-12-06T09:44:32.207Z,10.75
2022-12-06T09:45:40.148Z,10.60
2022-12-06T09:46:47.749Z,9.32
2022-12-06T09:48:26.688Z,9.63
2022-12-06T09:50:10.041Z,9.65
2022-12-06T09:51:21.286Z,8.75
2022-12-06T09:52:37.572Z,9.60
2022-12-06T09:54:12.704Z,10.13
2022-12-06T09:55:23.556Z,12.63
2022-12-06T09:56:25.305Z,15.15
2022-12-06T09:57:33.272Z,15.50
2022-12-06T09:58:47.078Z,9.43
2022-12-06T10:00:15.413Z,9.75
2022-12-06T10:01:24.382Z,9.15
2022-12-06T10:02:37.367Z,8.98
2022-12-06T10:04:08.520Z,8.82
2022-12-06T10:05:22.331Z,8.65
2022-12-06T10:06:30.722Z,8.43
2022-12-06T10:07:45.565Z,8.52
2022-12-06T10:09:06.066Z,7.88
2022-12-06T10:10:28.302Z,8.13
2022-12-06T10:12:05.420Z,7.45
2022-12-06T10:13:36.675Z,7.22
2022-12-06T10:15:07.182Z,7.72
2022-12-06T10:16:20.987Z,8.15
2022-12-06T10:17:31.695Z,6.65
2022-12-06T10:18:54.042Z,7.60
2022-12-06T10:20:14.592Z,7.75
2022-12-06T10:21:25.309Z,6.80
2022-12-06T10:22:45.576Z,7.82
2022-12-06T10:24:19.397Z,6.85
2022-12-06T10:25:38.251Z,9.93
2022-12-06T10:26:52.025Z,9.02
2022-12-06T10:27:56.861Z,10.30
2022-12-06T10:29:10.408Z,9.50
2022-12-06T10:30:14.924Z,8.32
2022-12-06T10:31:28.339Z,7.50
2022-12-06T10:32:35.883Z,7.38
2022-12-06T10:33:40.912Z,9.50
2022-12-06T10:34:55.396Z,9.05
2022-12-06T10:36:06.234Z,7.90
2022-12-06T10:37:20.335Z,9.50
2022-12-06T10:38:33.200Z,8.95
2022-12-06T10:39:58.035Z,9.10
2022-12-06T10:41:06.476Z,9.07
2022-12-06T10:42:27.248Z,8.73
2022-12-06T10:44:02.476Z,9.63
2022-12-06T10:45:37.643Z,7.32
2022-12-06T10:47:05.973Z,7.10
2022-12-06T10:48:17.928Z,7.50
2022-12-06T10:49:24.032Z,6.55
2022-12-06T10:50:30.605Z,7.47
2022-12-06T10:51:56.830Z,6.50
2022-12-06T10:53:13.407Z,6.00
2022-12-06T10:54:33.115Z,6.63
2022-12-06T10:55:56.777Z,5.60
2022-12-06T10:57:03.887Z,6.72
2022-12-06T10:58:24.689Z,9.75
2022-12-06T10:59:51.740Z,10.20
2022-12-06T11:00:59.666Z,8.40
2022-12-06T11:02:18.074Z,7.90
2022-12-06T11:03:41.583Z,8.13
2022-12-06T11:04:46.464Z,6.97
2022-12-06T11:06:00.674Z,6.32
2022-12-06T11:07:20.038Z,6.40
2022-12-06T11:08:36.134Z,5.63
2022-12-06T11:09:44.784Z,8.43
2022-12-06T11:10:47.733Z,7.10
2022-12-06T11:11:50.919Z,8.20
2022-12-06T11:13:02.359Z,9.43
2022-12-06T11:14:23.780Z,6.72
2022-12-06T11:15:30.012Z,5.60
2022-12-06T11:16:43.291Z,5.32
2022-12-06T11:18:14.537Z,5.43
2022-12-06T11:20:01.233Z,5.57
2022-12-06T11:21:12.924Z,5.45
2022-12-06T11:22:33.556Z,6.90
2022-12-06T11:23:59.268Z,10.68
2022-12-06T11:25:16.050Z,10.43
2022-12-06T11:26:23.622Z,7.60
2022-12-06T11:27:40.226Z,7.63
2022-12-06T11:28:55.530Z,5.75
2022-12-06T11:29:57.840Z,6.45
2022-12-06T11:31:00.324Z,6.20
2022-12-06T11:32:07.971Z,6.28
2022-12-06T11:33:10.343Z,6.10
2022-12-06T11:34:24.014Z,4.90
2022-12-06T11:35:27.737Z,5.10
2022-12-06T11:36:30.194Z,5.50
2022-12-06T11:37:34.267Z,5.15
2022-12-06T11:38:39.917Z,5.35
2022-12-06T11:39:41.584Z,4.60
2022-12-06T11:40:46.987Z,5.28
2022-12-06T11:41:55.709Z,4.90
2022-12-06T11:43:01.144Z,5.50
2022-12-06T11:44:03.498Z,5.38
2022-12-06T11:45:23.256Z,4.95
2022-12-06T11:46:25.628Z,5.13
2022-12-06T11:47:27.728Z,5.43
2022-12-06T11:48:33.757Z,5.53
2022-12-06T11:49:40.535Z,5.50
2022-12-06T11:50:44.624Z,6.00
2022-12-06T11:51:46.827Z,5.80
2022-12-06T11:53:03.992Z,5.55
2022-12-06T11:54:29.767Z,6.65
2022-12-06T11:55:44.031Z,5.95
2022-12-06T11:56:46.792Z,4.95
2022-12-06T11:58:14.689Z,4.90
2022-12-06T11:59:29.757Z,5.88
2022-12-06T12:00:31.819Z,5.47
2022-12-06T12:01:48.345Z,6.13
2022-12-06T12:02:53.474Z,6.03
2022-12-06T12:03:55.437Z,5.65
2022-12-06T12:05:14.298Z,6.55
2022-12-06T12:06:18.841Z,7.32
2022-12-06T12:07:23.524Z,6.57
2022-12-06T12:08:29.745Z,6.70
2022-12-06T12:09:45.179Z,5.18
2022-12-06T12:10:59.177Z,6.53
2022-12-06T12:12:05.486Z,6.35
2022-12-06T12:13:32.181Z,6.50
2022-12-06T12:14:39.458Z,6.75
2022-12-06T12:15:51.734Z,6.03
2022-12-06T12:17:01.172Z,7.10
2022-12-06T12:18:06.246Z,6.55
2022-12-06T12:19:43.210Z,7.25
2022-12-06T12:20:46.740Z,7.15
2022-12-06T12:21:54.097Z,7.53
2022-12-06T12:23:15.162Z,7.60
2022-12-06T12:25:17.759Z,6.95
2022-12-06T12:26:18.526Z,7.22
2022-12-06T12:27:46.374Z,7.30
2022-12-06T12:29:06.397Z,7.30
2022-12-06T12:30:36.602Z,7.32
2022-12-06T12:31:57.076Z,7.30
2022-12-06T12:33:08.329Z,6.95
2022-12-06T12:34:14.800Z,6.82
2022-12-06T12:35:25.361Z,7.20
2022-12-06T12:36:29.284Z,7.47
2022-12-06T12:37:31.352Z,6.55
2022-12-06T12:38:42.406Z,7.45
2022-12-06T12:39:54.149Z,6.43
2022-12-06T12:41:01.862Z,6.97
2022-12-06T12:42:04.781Z,6.95
2022-12-06T12:43:19.648Z,6.80
2022-12-06T12:44:37.699Z,6.38
2022-12-06T12:46:03.100Z,6.47
2022-12-06T12:47:17.393Z,6.53
2022-12-06T12:48:23.302Z,6.72
2022-12-06T12:49:34.550Z,7.20
2022-12-06T12:50:36.738Z,7.10
2022-12-06T12:51:40.579Z,6.40
2022-12-06T12:52:46.692Z,5.45
2022-12-06T12:53:55.234Z,6.60
2022-12-06T12:55:16.769Z,7.00
2022-12-06T12:56:20.590Z,6.90
2022-12-06T12:57:22.720Z,6.72
2022-12-06T12:58:24.465Z,7.05
2022-12-06T12:59:29.196Z,6.35
2022-12-06T13:00:48.625Z,6.95
2022-12-06T13:02:04.718Z,6.78
2022-12-06T13:03:42.956Z,6.50
2022-12-06T13:04:45.540Z,6.40
2022-12-06T13:05:49.618Z,6.72
2022-12-06T13:07:10.647Z,6.47
2022-12-06T13:08:20.201Z,6.47
2022-12-06T13:09:51.270Z,6.50
2022-12-06T13:10:59.363Z,6.50
2022-12-06T13:12:16.749Z,6.40
2022-12-06T13:13:35.320Z,8.50
2022-12-06T13:14:41.180Z,7.30
2022-12-06T13:15:47.570Z,7.57
2022-12-06T13:16:54.901Z,7.43
2022-12-06T13:18:30.924Z,7.57
2022-12-06T13:19:40.677Z,7.40
2022-12-06T13:20:42.869Z,6.50
2022-12-06T13:21:45.884Z,7.00
2022-12-06T13:22:51.553Z,8.00
2022-12-06T13:24:00.582Z,7.55
2022-12-06T13:25:06.668Z,7.70
2022-12-06T13:26:11.603Z,8.15
2022-12-06T13:27:18.556Z,9.13
2022-12-06T13:28:25.823Z,7.90
2022-12-06T13:29:30.505Z,7.72
2022-12-06T13:30:36.170Z,6.85
2022-12-06T13:31:40.596Z,7.95
2022-12-06T13:32:55.020Z,7.00
2022-12-06T13:34:00.661Z,7.05
2022-12-06T13:35:08.859Z,7.40
2022-12-06T13:36:14.936Z,7.55
2022-12-06T13:37:43.307Z,7.78
2022-12-06T13:38:45.229Z,7.78
2022-12-06T13:39:50.458Z,7.18
2022-12-06T13:41:00.550Z,7.30
2022-12-06T13:42:20.453Z,6.90
2022-12-06T13:43:25.065Z,7.68
2022-12-06T13:44:53.651Z,9.20
2022-12-06T13:46:07.799Z,8.07
2022-12-06T13:47:27.835Z,8.07
2022-12-06T13:49:04.965Z,6.93
2022-12-06T13:50:19.113Z,8.60
2022-12-06T13:51:34.650Z,8.15
2022-12-06T13:52:42.339Z,8.55
2022-12-06T13:54:02.850Z,8.60
2022-12-06T13:55:26.654Z,9.07
2022-12-06T13:56:36.695Z,8.32
2022-12-06T13:57:38.601Z,8.80
2022-12-06T13:58:42.131Z,9.02
2022-12-06T13:59:43.857Z,11.90
2022-12-06T14:00:50.858Z,11.98
2022-12-06T14:01:58.948Z,10.50
2022-12-06T14:03:03.683Z,14.00
2022-12-06T14:06:14.856Z,11.80
2022-12-06T14:07:32.852Z,12.70
2022-12-06T14:08:40.813Z,16.88
2022-12-06T14:09:49.293Z,16.98
2022-12-06T14:10:51.525Z,14.20
2022-12-06T14:11:53.644Z,13.00
2022-12-06T14:13:00.392Z,15.55
2022-12-06T14:14:09.053Z,18.00
2022-12-06T14:15:19.865Z,20.77
2022-12-06T14:16:33.862Z,19.45
2022-12-06T14:19:15.115Z,10.80
2022-12-06T14:20:23.765Z,9.50
2022-12-06T14:21:38.190Z,10.38
2022-12-06T14:22:41.145Z,9.48
2022-12-06T14:23:46.840Z,9.20
2022-12-06T14:25:02.977Z,8.68
2022-12-06T14:26:35.859Z,9.38
2022-12-06T14:27:46.806Z,10.65
2022-12-06T14:28:50.306Z,9.25
2022-12-06T14:30:23.528Z,9.82
2022-12-06T14:31:39.465Z,7.85
2022-12-06T14:32:48.022Z,9.55
2022-12-06T14:33:50.757Z,8.98
2022-12-06T14:35:02.505Z,9.07
2022-12-06T14:36:04.756Z,8.48
2022-12-06T14:37:21.480Z,9.00
2022-12-06T14:38:31.231Z,9.82
2022-12-06T14:39:32.938Z,8.88
2022-12-06T14:41:01.895Z,9.48
2022-12-06T14:42:50.760Z,10.75
2022-12-06T14:43:52.763Z,9.35
2022-12-06T14:45:02.012Z,9.75
2022-12-06T14:46:12.584Z,9.85
2022-12-06T14:47:16.944Z,10.30
2022-12-06T14:48:20.251Z,10.70
2022-12-06T14:49:42.577Z,9.38
2022-12-06T14:50:58.014Z,10.10
2022-12-06T14:52:00.183Z,9.48
2022-12-06T14:53:11.701Z,10.10
2022-12-06T14:54:19.330Z,11.07
2022-12-06T14:55:21.317Z,10.45
2022-12-06T14:56:36.811Z,9.52